Terminal Aerodrome Forecast
Issued by NWS

Home | Current Version | Previous Version | Text Only | Print | Product List | Glossary On
Versions: 1 2 3 4 5 6 7 8 9 10 11 12 13
054
FTUS44 KEPZ 261720
TAFLRU
TAF
KLRU 261720Z 2618/2718 10008KT P6SM SCT110 BKN250
     FM262300 13007KT P6SM VCTS SCT090CB SCT110 BKN250
     FM270400 24005KT P6SM FEW090 SCT130 BKN250
     FM271700 14007KT P6SM FEW130 SCT250=

USA.gov is the U.S. government's official web portal to all federal, state and local government web resources and services.